createdAt,value
2023-03-02T00:00:58.534Z,9.47
2023-03-02T00:03:26.920Z,10.30
2023-03-02T00:05:54.977Z,8.57
2023-03-02T00:08:22.428Z,8.40
2023-03-02T00:10:49.801Z,6.83
2023-03-02T00:13:18.586Z,7.20
2023-03-02T00:15:46.004Z,6.63
2023-03-02T00:18:13.406Z,7.63
2023-03-02T00:20:40.959Z,7.23
2023-03-02T00:23:08.364Z,5.73
2023-03-02T00:25:36.759Z,7.23
2023-03-02T00:28:04.241Z,6.73
2023-03-02T00:30:33.197Z,8.57
2023-03-02T00:33:00.623Z,5.80
2023-03-02T00:35:28.179Z,6.80
2023-03-02T00:37:55.640Z,6.53
2023-03-02T00:40:23.046Z,6.00
2023-03-02T00:42:50.478Z,7.93
2023-03-02T00:45:18.049Z,6.10
2023-03-02T00:47:46.800Z,6.43
2023-03-02T00:50:14.260Z,6.17
2023-03-02T00:52:41.656Z,7.30
2023-03-02T00:55:09.420Z,6.90
2023-03-02T00:57:36.986Z,7.10
2023-03-02T01:00:05.654Z,8.27
2023-03-02T01:02:33.234Z,7.00
2023-03-02T01:05:02.033Z,5.97
2023-03-02T01:07:29.496Z,5.40
2023-03-02T01:09:56.944Z,7.33
2023-03-02T01:12:24.383Z,6.67
2023-03-02T01:14:51.807Z,6.10
2023-03-02T01:17:19.277Z,6.13
2023-03-02T01:19:46.731Z,7.20
2023-03-02T01:22:15.546Z,6.40
2023-03-02T01:24:42.988Z,7.30
2023-03-02T01:27:10.660Z,5.90
2023-03-02T01:29:38.634Z,7.47
2023-03-02T01:32:06.397Z,6.13
2023-03-02T01:34:33.875Z,7.43
2023-03-02T01:37:01.430Z,6.37
2023-03-02T01:39:30.283Z,6.70
2023-03-02T01:41:57.772Z,5.87
2023-03-02T01:44:35.401Z,6.90
2023-03-02T01:47:03.729Z,7.43
2023-03-02T01:49:38.848Z,6.07
2023-03-02T01:52:06.335Z,6.47
2023-03-02T01:54:35.144Z,8.17
2023-03-02T01:57:04.115Z,5.40
2023-03-02T01:59:32.662Z,5.47
2023-03-02T02:02:02.603Z,6.33
2023-03-02T02:04:30.759Z,7.20
2023-03-02T02:07:01.681Z,8.27
2023-03-02T02:09:30.418Z,6.47
2023-03-02T02:11:59.156Z,6.30
2023-03-02T02:14:27.010Z,6.53
2023-03-02T02:16:54.937Z,9.33
2023-03-02T02:19:32.069Z,7.53
2023-03-02T02:21:59.518Z,8.70
2023-03-02T02:24:28.644Z,8.37
2023-03-02T02:26:58.006Z,6.17
2023-03-02T02:29:27.289Z,7.80
2023-03-02T02:31:57.105Z,6.87
2023-03-02T02:34:26.208Z,5.07
2023-03-02T02:36:55.739Z,6.50
2023-03-02T02:39:25.829Z,7.20
2023-03-02T02:41:55.353Z,5.10
2023-03-02T02:44:24.138Z,7.53
2023-03-02T02:46:51.725Z,8.33
2023-03-02T02:49:26.402Z,6.13
2023-03-02T02:51:53.860Z,7.27
2023-03-02T02:54:21.355Z,5.17
2023-03-02T02:56:50.557Z,7.20
2023-03-02T02:59:20.239Z,6.40
2023-03-02T03:01:49.506Z,6.00
2023-03-02T03:04:19.484Z,7.50
2023-03-02T03:06:51.840Z,6.00
2023-03-02T03:09:19.388Z,6.77
2023-03-02T03:11:48.957Z,8.90
2023-03-02T03:14:17.518Z,7.63
2023-03-02T03:16:46.851Z,7.10
2023-03-02T03:19:18.239Z,7.00
2023-03-02T03:21:46.330Z,7.37
2023-03-02T03:24:13.789Z,7.50
2023-03-02T03:26:41.281Z,6.57
2023-03-02T03:29:08.896Z,7.70
2023-03-02T03:31:36.337Z,6.00
2023-03-02T03:34:03.828Z,9.60
2023-03-02T03:36:33.582Z,10.00
2023-03-02T03:39:01.604Z,7.77
2023-03-02T03:41:29.058Z,6.50
2023-03-02T03:43:56.619Z,6.63
2023-03-02T03:46:24.217Z,8.00
2023-03-02T03:48:52.054Z,8.27
2023-03-02T03:51:19.585Z,6.90
2023-03-02T03:53:59.591Z,7.60
2023-03-02T03:56:27.180Z,8.30
2023-03-02T03:59:06.641Z,8.17
2023-03-02T04:01:35.456Z,8.20
2023-03-02T04:04:03.059Z,8.77
2023-03-02T04:06:31.014Z,6.20
2023-03-02T04:09:04.555Z,7.23
2023-03-02T04:11:32.369Z,8.13
2023-03-02T04:13:59.851Z,6.77
2023-03-02T04:16:27.293Z,7.90
2023-03-02T04:18:54.754Z,8.80
2023-03-02T04:21:22.296Z,8.33
2023-03-02T04:23:49.753Z,7.80
2023-03-02T04:26:18.576Z,6.93
2023-03-02T04:28:46.171Z,8.60
2023-03-02T04:31:13.603Z,7.10
2023-03-02T04:33:41.280Z,7.30
2023-03-02T04:36:08.953Z,10.40
2023-03-02T04:38:36.474Z,8.47
2023-03-02T04:41:04.406Z,6.87
2023-03-02T04:43:33.405Z,7.03
2023-03-02T04:46:00.826Z,7.20
2023-03-02T04:48:28.322Z,8.93
2023-03-02T04:50:56.113Z,6.50
2023-03-02T04:53:23.625Z,8.70
2023-03-02T04:55:51.093Z,9.80
2023-03-02T04:58:18.498Z,9.37
2023-03-02T05:00:47.355Z,6.13
2023-03-02T05:03:14.821Z,7.00
2023-03-02T05:05:42.566Z,8.00
2023-03-02T05:08:09.937Z,8.73
2023-03-02T05:10:37.341Z,6.73
2023-03-02T05:13:05.802Z,7.70
2023-03-02T05:15:34.971Z,10.00
2023-03-02T05:18:03.977Z,8.17
2023-03-02T05:20:31.619Z,5.97
2023-03-02T05:22:59.915Z,7.40
2023-03-02T05:25:28.067Z,9.60
2023-03-02T05:27:55.777Z,7.27
2023-03-02T05:30:24.162Z,7.67
2023-03-02T05:32:52.338Z,7.17
2023-03-02T05:35:21.226Z,5.73
2023-03-02T05:37:49.175Z,8.67
2023-03-02T05:40:18.815Z,8.60
2023-03-02T05:42:46.355Z,6.17
2023-03-02T05:45:18.960Z,7.80
2023-03-02T05:47:46.626Z,9.20
2023-03-02T05:50:14.033Z,6.50
2023-03-02T05:52:42.826Z,6.13
2023-03-02T05:55:10.547Z,7.63
2023-03-02T05:57:38.044Z,6.80
2023-03-02T06:00:06.743Z,6.27
2023-03-02T06:02:34.222Z,7.57
2023-03-02T06:05:01.731Z,7.63
2023-03-02T06:07:29.852Z,6.70
2023-03-02T06:09:58.666Z,6.87
2023-03-02T06:12:26.177Z,7.60
2023-03-02T06:14:53.745Z,6.40
2023-03-02T06:17:21.201Z,8.27
2023-03-02T06:19:48.566Z,6.60
2023-03-02T06:22:16.008Z,9.63
2023-03-02T06:24:43.470Z,7.00
2023-03-02T06:27:12.920Z,6.57
2023-03-02T06:29:40.410Z,7.30
2023-03-02T06:32:08.419Z,8.67
2023-03-02T06:34:35.907Z,7.70
2023-03-02T06:37:03.347Z,7.33
2023-03-02T06:39:30.730Z,8.03
2023-03-02T06:41:59.277Z,7.63
2023-03-02T06:44:28.142Z,6.80
2023-03-02T06:46:55.537Z,6.57
2023-03-02T06:49:23.050Z,6.70
2023-03-02T06:51:50.604Z,7.83
2023-03-02T06:54:17.970Z,6.53
2023-03-02T06:56:45.396Z,14.53
2023-03-02T06:59:12.849Z,6.00
2023-03-02T07:01:41.898Z,11.53
2023-03-02T07:04:09.307Z,8.63
2023-03-02T07:06:36.816Z,7.30
2023-03-02T07:09:04.572Z,8.47
2023-03-02T07:11:32.723Z,6.93
2023-03-02T07:14:00.605Z,7.07
2023-03-02T07:16:28.752Z,6.30
2023-03-02T07:18:57.601Z,11.97
2023-03-02T07:21:25.094Z,10.73
2023-03-02T07:23:52.465Z,9.93
2023-03-02T07:26:19.960Z,8.50
2023-03-02T07:28:47.450Z,9.00
2023-03-02T07:31:15.083Z,8.97
2023-03-02T07:33:42.691Z,7.17
2023-03-02T07:36:11.634Z,11.20
2023-03-02T07:38:39.820Z,9.77
2023-03-02T07:41:07.756Z,7.90
2023-03-02T07:43:36.561Z,11.70
2023-03-02T07:46:04.498Z,10.13
2023-03-02T07:48:31.996Z,11.67
2023-03-02T07:50:59.808Z,10.27
2023-03-02T07:53:29.025Z,10.60
2023-03-02T07:55:56.484Z,14.20
2023-03-02T07:58:24.221Z,9.10
2023-03-02T08:00:51.976Z,9.60
2023-03-02T08:03:19.421Z,8.60
2023-03-02T08:05:46.818Z,10.87
2023-03-02T08:08:14.329Z,8.23
2023-03-02T08:10:43.077Z,10.73
2023-03-02T08:13:10.553Z,10.70
2023-03-02T08:15:38.005Z,11.53
2023-03-02T08:18:05.565Z,14.23
2023-03-02T08:20:33.174Z,11.87
2023-03-02T08:23:00.629Z,13.50
2023-03-02T08:25:28.859Z,13.30
2023-03-02T08:27:57.560Z,15.67
2023-03-02T08:30:25.355Z,15.00
2023-03-02T08:32:52.753Z,10.47
2023-03-02T08:35:22.064Z,12.57
2023-03-02T08:37:49.529Z,9.50
2023-03-02T08:40:17.120Z,10.10
2023-03-02T08:42:44.496Z,11.23
2023-03-02T08:45:13.629Z,29.63
2023-03-02T08:47:41.076Z,11.53
2023-03-02T08:50:09.122Z,7.57
2023-03-02T08:52:36.623Z,9.63
2023-03-02T08:55:04.573Z,8.97
2023-03-02T08:57:32.037Z,7.50
2023-03-02T08:59:59.433Z,8.23
2023-03-02T09:02:28.200Z,9.77
2023-03-02T09:04:55.850Z,8.63
2023-03-02T09:07:23.366Z,10.10
2023-03-02T09:09:50.836Z,7.30
2023-03-02T09:12:18.219Z,8.57
2023-03-02T09:14:45.606Z,9.90
2023-03-02T09:17:15.564Z,12.90
2023-03-02T09:19:44.769Z,7.90
2023-03-02T09:22:12.631Z,9.53
2023-03-02T09:24:40.084Z,9.33
2023-03-02T09:27:07.436Z,10.00
2023-03-02T09:29:34.961Z,9.03
2023-03-02T09:32:02.521Z,6.47
2023-03-02T09:34:30.438Z,7.33
2023-03-02T09:36:59.209Z,8.13
2023-03-02T09:39:26.624Z,9.10
2023-03-02T09:42:08.889Z,8.47
2023-03-02T09:44:42.764Z,11.47
2023-03-02T09:47:21.651Z,9.63
2023-03-02T09:49:58.654Z,9.87
2023-03-02T09:52:31.703Z,10.40
2023-03-02T09:55:01.242Z,12.43
2023-03-02T09:57:32.328Z,8.73
2023-03-02T10:00:09.514Z,9.40
2023-03-02T10:02:47.560Z,9.87
2023-03-02T10:05:17.341Z,9.57
2023-03-02T10:07:47.054Z,13.13
2023-03-02T10:10:28.210Z,10.33
2023-03-02T10:13:02.235Z,10.60
2023-03-02T10:15:32.468Z,9.80
2023-03-02T10:18:02.724Z,9.40
2023-03-02T10:20:35.885Z,12.30
2023-03-02T10:23:11.101Z,7.23
2023-03-02T10:25:40.340Z,9.47
2023-03-02T10:28:14.121Z,9.70
2023-03-02T10:30:42.028Z,9.43
2023-03-02T10:33:12.929Z,10.63
2023-03-02T10:35:45.493Z,10.47
2023-03-02T10:38:15.507Z,11.30
2023-03-02T10:40:43.782Z,10.83
2023-03-02T10:43:15.753Z,11.20
2023-03-02T10:45:43.215Z,9.60
2023-03-02T10:48:13.592Z,9.87
2023-03-02T10:50:41.389Z,11.10
2023-03-02T10:53:09.411Z,10.10
2023-03-02T10:55:45.205Z,9.93
2023-03-02T10:58:22.261Z,11.50
2023-03-02T11:00:56.830Z,8.87
2023-03-02T11:03:25.019Z,10.80
2023-03-02T11:05:52.444Z,11.20
2023-03-02T11:08:20.641Z,10.97
2023-03-02T11:10:56.890Z,8.80
2023-03-02T11:13:28.741Z,10.10
2023-03-02T11:15:58.032Z,10.33
2023-03-02T11:18:26.715Z,11.27
2023-03-02T11:20:56.002Z,10.97
2023-03-02T11:23:27.515Z,10.80
2023-03-02T11:25:58.262Z,11.23
2023-03-02T11:28:32.878Z,11.73
2023-03-02T11:31:01.599Z,10.60
2023-03-02T11:33:31.610Z,10.13
2023-03-02T11:36:01.297Z,10.10
2023-03-02T11:38:30.425Z,10.93
2023-03-02T11:41:00.571Z,8.83
2023-03-02T11:43:28.271Z,9.20
2023-03-02T11:45:58.380Z,12.80
2023-03-02T11:48:27.508Z,10.10
2023-03-02T11:50:57.166Z,10.03
2023-03-02T11:53:26.711Z,8.53
2023-03-02T11:55:54.168Z,8.13
2023-03-02T11:58:24.493Z,9.63
2023-03-02T12:00:52.502Z,11.90
2023-03-02T12:03:21.736Z,10.80
2023-03-02T12:06:00.754Z,9.20
2023-03-02T12:08:36.173Z,8.87
2023-03-02T12:11:05.008Z,11.80
2023-03-02T12:13:34.838Z,9.00
2023-03-02T12:16:02.539Z,7.00
2023-03-02T12:18:44.166Z,7.17
2023-03-02T12:21:12.554Z,9.07
2023-03-02T12:23:42.823Z,12.90
2023-03-02T12:26:25.002Z,11.17
2023-03-02T12:28:59.693Z,11.60
2023-03-02T12:31:27.568Z,16.13
2023-03-02T12:33:55.094Z,9.83
2023-03-02T12:36:27.080Z,10.10
2023-03-02T12:39:07.682Z,13.20
2023-03-02T12:41:41.917Z,9.60
2023-03-02T12:44:28.328Z,10.97
2023-03-02T12:46:56.350Z,11.83
2023-03-02T12:49:31.641Z,10.50
2023-03-02T12:52:00.697Z,11.87
2023-03-02T12:54:29.159Z,13.33
2023-03-02T12:57:03.562Z,8.80
2023-03-02T12:59:32.358Z,12.13
2023-03-02T13:02:20.624Z,10.40
2023-03-02T13:04:53.025Z,8.37
2023-03-02T13:07:21.354Z,9.77
2023-03-02T13:09:56.548Z,11.20
2023-03-02T13:12:26.104Z,10.47
2023-03-02T13:14:56.455Z,8.97
2023-03-02T13:17:25.294Z,9.80
2023-03-02T13:19:53.334Z,10.10
2023-03-02T13:22:21.345Z,9.10
2023-03-02T13:24:51.485Z,12.60
2023-03-02T13:27:19.643Z,10.20
2023-03-02T13:29:47.821Z,8.83
2023-03-02T13:32:18.512Z,8.63
2023-03-02T13:34:49.479Z,9.33
2023-03-02T13:37:19.936Z,10.77
2023-03-02T13:39:55.530Z,10.20
2023-03-02T13:42:27.558Z,10.37
2023-03-02T13:44:54.984Z,8.63
2023-03-02T13:47:25.135Z,8.70
2023-03-02T13:49:52.721Z,7.77
2023-03-02T13:52:25.742Z,10.30
2023-03-02T13:54:53.356Z,8.97
2023-03-02T13:57:26.005Z,9.60
2023-03-02T13:59:53.650Z,9.53
2023-03-02T14:02:24.257Z,8.63
2023-03-02T14:04:53.236Z,14.90
2023-03-02T14:07:21.706Z,7.33
2023-03-02T14:09:49.283Z,7.53
2023-03-02T14:12:23.581Z,5.43
2023-03-02T14:14:51.390Z,4.90
2023-03-02T14:17:22.414Z,6.80
2023-03-02T14:19:52.801Z,5.63
2023-03-02T14:22:22.055Z,6.17
2023-03-02T14:24:49.828Z,5.57
2023-03-02T14:27:17.947Z,6.33
2023-03-02T14:29:45.907Z,4.20
2023-03-02T14:32:14.706Z,7.10
2023-03-02T14:34:42.200Z,5.50
2023-03-02T14:37:12.319Z,7.83
2023-03-02T14:39:42.171Z,4.10
2023-03-02T14:42:12.331Z,9.53
2023-03-02T14:44:39.747Z,6.87
2023-03-02T14:47:07.184Z,6.30
2023-03-02T14:49:34.674Z,6.73
2023-03-02T14:52:03.764Z,4.07
2023-03-02T14:54:34.400Z,7.00
2023-03-02T14:57:06.122Z,4.53
2023-03-02T14:59:33.620Z,4.50
2023-03-02T15:02:12.831Z,6.60
2023-03-02T15:04:46.670Z,5.70
2023-03-02T15:07:15.895Z,4.03
2023-03-02T15:09:44.052Z,5.80
2023-03-02T15:12:13.181Z,4.27
2023-03-02T15:14:40.724Z,4.80
2023-03-02T15:17:08.207Z,5.20
2023-03-02T15:19:35.676Z,5.10
2023-03-02T15:22:03.091Z,3.97
2023-03-02T15:24:33.157Z,8.30
2023-03-02T15:27:01.240Z,6.50
2023-03-02T15:29:30.423Z,7.30
2023-03-02T15:31:58.080Z,5.47
2023-03-02T15:34:25.562Z,6.10
2023-03-02T15:36:52.952Z,5.47
2023-03-02T15:39:20.380Z,7.33
2023-03-02T15:41:47.772Z,5.63
2023-03-02T15:44:21.400Z,6.00
2023-03-02T15:46:51.809Z,4.30
2023-03-02T15:49:22.712Z,6.30
2023-03-02T15:51:51.549Z,4.77
2023-03-02T15:54:18.939Z,4.47
2023-03-02T15:56:49.451Z,6.63
2023-03-02T15:59:16.884Z,4.67
2023-03-02T16:01:44.548Z,5.63
2023-03-02T16:04:13.346Z,11.40
2023-03-02T16:06:40.745Z,5.47
2023-03-02T16:09:08.244Z,5.10
2023-03-02T16:11:35.716Z,5.97
2023-03-02T16:14:03.580Z,5.00
2023-03-02T16:16:31.096Z,5.90
2023-03-02T16:18:59.355Z,3.80
2023-03-02T16:21:29.161Z,4.70
2023-03-02T16:24:03.150Z,5.03
2023-03-02T16:26:31.402Z,7.53
2023-03-02T16:28:58.990Z,7.50
2023-03-02T16:31:27.027Z,3.87
2023-03-02T16:33:55.048Z,5.63
2023-03-02T16:36:23.220Z,3.70
2023-03-02T16:38:52.101Z,4.80
2023-03-02T16:41:20.571Z,6.77
2023-03-02T16:43:49.084Z,4.77
2023-03-02T16:46:17.001Z,4.90
2023-03-02T16:48:45.265Z,5.23
2023-03-02T16:51:12.977Z,4.60
2023-03-02T16:53:40.850Z,9.60
2023-03-02T16:56:10.200Z,10.83
2023-03-02T16:58:39.571Z,6.40
2023-03-02T17:01:07.806Z,3.70
2023-03-02T17:03:35.314Z,4.27
2023-03-02T17:06:02.997Z,4.40
2023-03-02T17:08:30.364Z,9.07
2023-03-02T17:10:57.774Z,3.70
2023-03-02T17:13:26.897Z,6.07
2023-03-02T17:15:54.479Z,6.10
2023-03-02T17:18:22.015Z,4.37
2023-03-02T17:20:51.425Z,4.70
2023-03-02T17:23:18.886Z,4.13
2023-03-02T17:25:46.361Z,4.20
2023-03-02T17:28:14.980Z,4.33
2023-03-02T17:30:44.198Z,4.20
2023-03-02T17:33:12.039Z,4.50
2023-03-02T17:35:39.499Z,7.43
2023-03-02T17:38:06.916Z,7.70
2023-03-02T17:40:34.413Z,12.90
2023-03-02T17:43:01.906Z,6.47
2023-03-02T17:45:29.864Z,4.67
2023-03-02T17:47:59.319Z,8.87
2023-03-02T17:50:27.134Z,5.63
2023-03-02T17:52:55.304Z,5.60
2023-03-02T17:55:22.711Z,4.47
2023-03-02T17:57:50.143Z,7.90
2023-03-02T18:00:19.377Z,5.77
2023-03-02T18:02:46.914Z,7.87
2023-03-02T18:05:15.749Z,5.83
2023-03-02T18:07:43.134Z,9.57
2023-03-02T18:10:11.235Z,5.70
2023-03-02T18:12:38.664Z,8.83
2023-03-02T18:15:06.747Z,6.13
2023-03-02T18:17:34.149Z,4.63
2023-03-02T18:20:01.584Z,5.27
2023-03-02T18:22:30.533Z,5.10
2023-03-02T18:24:57.892Z,6.73
2023-03-02T18:27:25.405Z,5.90
2023-03-02T18:29:52.913Z,8.07
2023-03-02T18:32:20.741Z,6.23
2023-03-02T18:34:48.588Z,5.70
2023-03-02T18:37:16.273Z,4.47
2023-03-02T18:39:45.251Z,5.60
2023-03-02T18:42:12.895Z,9.63
2023-03-02T18:44:40.427Z,5.10
2023-03-02T18:47:08.151Z,5.70
2023-03-02T18:49:35.754Z,7.53
2023-03-02T18:52:05.715Z,5.00
2023-03-02T18:54:33.519Z,9.00
2023-03-02T18:57:02.599Z,6.60
2023-03-02T18:59:30.402Z,5.23
2023-03-02T19:01:58.024Z,5.70
2023-03-02T19:04:26.353Z,4.77
2023-03-02T19:06:53.820Z,4.43
2023-03-02T19:09:21.276Z,5.32
2023-03-02T19:11:48.713Z,5.53
2023-03-02T19:14:17.574Z,8.50
2023-03-02T19:16:45.080Z,10.00
2023-03-02T19:19:12.548Z,6.43
2023-03-02T19:21:39.989Z,7.00
2023-03-02T19:24:07.738Z,8.63
2023-03-02T19:26:35.553Z,6.17
2023-03-02T19:29:03.268Z,5.83
2023-03-02T19:31:32.832Z,7.53
2023-03-02T19:34:00.464Z,6.87
2023-03-02T19:36:27.967Z,14.77
2023-03-02T19:38:55.436Z,5.83
2023-03-02T19:41:23.986Z,7.17
2023-03-02T19:43:51.449Z,6.97
2023-03-02T19:46:19.115Z,8.93
2023-03-02T19:48:48.440Z,7.57
2023-03-02T19:51:16.640Z,10.03
2023-03-02T19:53:45.922Z,5.60
2023-03-02T19:56:15.012Z,7.40
2023-03-02T19:58:47.332Z,7.37
2023-03-02T20:01:16.357Z,7.10
2023-03-02T20:03:46.154Z,8.90
2023-03-02T20:06:15.001Z,8.37
2023-03-02T20:08:42.436Z,9.93
2023-03-02T20:11:11.278Z,10.40
2023-03-02T20:13:38.776Z,13.90
2023-03-02T20:16:06.730Z,9.77
2023-03-02T20:18:34.966Z,10.80
2023-03-02T20:21:02.751Z,11.70
2023-03-02T20:23:31.531Z,11.60
2023-03-02T20:25:59.036Z,14.50
2023-03-02T20:28:27.145Z,12.10
2023-03-02T20:30:56.950Z,13.70
2023-03-02T20:33:25.596Z,13.27
2023-03-02T20:35:53.377Z,9.83
2023-03-02T20:38:22.926Z,12.40
2023-03-02T20:40:51.764Z,17.93
2023-03-02T20:43:19.692Z,13.43
2023-03-02T20:45:47.359Z,18.33
2023-03-02T20:48:14.815Z,17.23
2023-03-02T20:50:42.508Z,16.20
2023-03-02T20:53:10.716Z,17.23
2023-03-02T20:55:38.154Z,17.10
2023-03-02T20:58:06.935Z,19.83
2023-03-02T21:00:35.353Z,17.53
2023-03-02T21:03:03.085Z,18.43
2023-03-02T21:05:31.753Z,16.83
2023-03-02T21:07:59.661Z,15.17
2023-03-02T21:10:28.876Z,17.07
2023-03-02T21:12:56.680Z,18.17
2023-03-02T21:15:27.149Z,19.37
2023-03-02T21:17:55.874Z,17.63
2023-03-02T21:20:24.337Z,19.87
2023-03-02T21:22:51.808Z,18.00
2023-03-02T21:25:19.503Z,16.23
2023-03-02T21:27:46.969Z,17.33
2023-03-02T21:30:15.923Z,24.50
2023-03-02T21:32:45.603Z,22.30
2023-03-02T21:35:14.411Z,20.07
2023-03-02T21:37:41.973Z,19.83
2023-03-02T21:40:10.343Z,22.17
2023-03-02T21:42:38.023Z,23.23
2023-03-02T21:45:08.881Z,23.63
2023-03-02T21:47:36.533Z,21.23
2023-03-02T21:50:05.806Z,19.67
2023-03-02T21:52:33.591Z,22.20
2023-03-02T21:55:01.269Z,19.63
2023-03-02T21:57:28.873Z,22.67
2023-03-02T21:59:56.338Z,21.30
2023-03-02T22:02:23.790Z,21.60
2023-03-02T22:04:51.304Z,21.20
2023-03-02T22:07:20.377Z,21.87
2023-03-02T22:09:47.909Z,22.40
2023-03-02T22:12:15.625Z,25.40
2023-03-02T22:14:43.273Z,19.63
2023-03-02T22:17:15.864Z,19.53
2023-03-02T22:19:43.856Z,17.33
2023-03-02T22:22:16.385Z,18.00
2023-03-02T22:24:47.223Z,13.70
2023-03-02T22:27:21.890Z,13.33
2023-03-02T22:29:49.746Z,14.13
2023-03-02T22:32:18.890Z,13.20
2023-03-02T22:34:47.314Z,12.33
2023-03-02T22:37:17.526Z,14.13
2023-03-02T22:39:46.969Z,13.17
2023-03-02T22:42:15.376Z,15.80
2023-03-02T22:44:42.960Z,20.20
2023-03-02T22:47:14.655Z,15.17
2023-03-02T22:49:42.368Z,15.83
2023-03-02T22:52:13.128Z,15.63
2023-03-02T22:54:40.676Z,15.87
2023-03-02T22:57:17.648Z,19.57
2023-03-02T22:59:45.203Z,17.30
2023-03-02T23:02:15.128Z,20.30
2023-03-02T23:04:49.710Z,18.30
2023-03-02T23:07:17.960Z,18.60
2023-03-02T23:09:45.585Z,16.63
2023-03-02T23:12:16.715Z,15.60
2023-03-02T23:14:47.792Z,18.00
2023-03-02T23:17:18.336Z,16.47
2023-03-02T23:19:45.750Z,17.63
2023-03-02T23:22:13.156Z,16.13
2023-03-02T23:24:40.655Z,16.80
2023-03-02T23:27:09.473Z,15.00
2023-03-02T23:29:38.301Z,15.90
2023-03-02T23:32:06.016Z,17.00
2023-03-02T23:34:33.505Z,16.27
2023-03-02T23:37:01.339Z,17.87
2023-03-02T23:39:28.784Z,17.17
2023-03-02T23:41:56.232Z,18.17
2023-03-02T23:44:24.035Z,20.63
2023-03-02T23:46:52.934Z,16.77
2023-03-02T23:49:20.565Z,17.47
2023-03-02T23:51:48.506Z,17.83
2023-03-02T23:54:15.951Z,19.20
2023-03-02T23:56:43.369Z,19.87
2023-03-02T23:59:11.074Z,18.90
